Aérodrome :
LOGIN :

S'inscrire | Disclaimer

   EN    FR    IT 

 










Légende :    VFR   VFR Marginal   IFR   IFR Intensif   IFR Très Intensif
Visi : 
Plafond : 
>= 8 km
>= 3000ft
5 à 8 km
1000 à 3000 ft
1500m à 5 km
500 à 1000 ft
800 à 1500m
200 à 500 ft
< 800m
< 200 ft
Symboles :   Orages  Brouillard  Fortes neiges  Fortes précipitations  Vent > 20 kt
SIGMETs :   Divers  Orages  Givrage  Turbulence  Onde Orograph.  Cendres Volcan.






- Altitude de l'aérodrome : 464 ft
- Code IATA : EVX


LFOE - Evreux

DERNIER METAR :
  • 230130Z AUTO 05008KT CAVOK 07/00 Q1025 NOSIG

METARs EXPIRÉS :
  • 230100Z AUTO 05008KT CAVOK 07/00 Q1025 NOSIG
  • 230030Z AUTO 06007KT CAVOK 07/00 Q1025 NOSIG
  • 230000Z AUTO 06007KT CAVOK 08/00 Q1025 NOSIG
  • 222330Z AUTO 05006KT CAVOK 07/M00 Q1025 NOSIG
  • 222300Z AUTO 06007KT CAVOK 08/M00 Q1025 NOSIG

TAF TAF LFOE
Valide du 22 à 21h jusqu'au 23 à 21h UTC


222000Z 2221/2321 04008KT CAVOK
TEMPO 2312/2318 07010G20KT



MET'MAP, la Météo Aéronautique d'un coup d'oeil ! - Copyright ORBIFLY Décembre 2007 - Disclaimer

ORBIFLY MET'MAP TEAM :

Programmation & Développement : Alexandra Zaïnal
Sur une idée originale de : Baudouin d'Aumeries
Assistance à la programmation : Marc-Olivier Méhu
Soutien technique & logistique : Manuel Goepfert

Contact : metmap@orbifly.com




SOURCES & CREDITS :

   NOAA